Terminal Aerodrome Forecast
Issued by NWS

Home | Current Version | Previous Version | Text Only | Print | Product List | Glossary On
Versions: 1 2 3 4 5 6 7 8 9 10 11 12 13 14 15
000
FTAK31 PAFA 030644 AAB
TAFAUN
TAF AMD
PAUN 030644Z 0307/0406 12006KT P6SM SCT020
     FM030900 00000KT P6SM BKN050
     FM031800 00000KT P6SM SKC=

USA.gov is the U.S. government's official web portal to all federal, state and local government web resources and services.